Time;durP1;ratioP1;P1;durP2;ratioP2;P2;SDS_P1;SDS_P2;PMS_P1;PMS_P2;Temp;Humidity;BMP_temperature;BMP_pressure;BME280_temperature;BME280_humidity;BME280_pressure;Samples;Min_cycle;Max_cycle;Signal;HPM_P1;HPM_P2
2024/03/01 00:01:17;;;;;;;8.55;5.00;;;17.10;84.90;;;;;;5073704;28;20098;-44
2024/03/01 00:03:42;;;;;;;7.25;5.30;;;17.10;84.90;;;;;;5073990;28;20025;-44
2024/03/01 00:06:08;;;;;;;8.95;5.47;;;17.00;84.80;;;;;;5073681;28;20020;-44
2024/03/01 00:08:34;;;;;;;7.97;5.60;;;17.00;84.90;;;;;;5073721;28;20146;-44
2024/03/01 00:10:59;;;;;;;8.25;5.32;;;17.00;84.90;;;;;;5073630;28;20367;-44
2024/03/01 00:13:25;;;;;;;7.38;5.80;;;17.00;84.90;;;;;;5073727;28;20371;-44
2024/03/01 00:15:50;;;;;;;7.32;5.10;;;17.00;84.90;;;;;;5073804;28;20082;-44
2024/03/01 00:18:17;;;;;;;7.90;5.28;;;17.00;84.90;;;;;;5072245;28;20108;-44
2024/03/01 00:20:42;;;;;;;7.43;5.00;;;17.00;84.90;;;;;;5073338;28;20025;-41
2024/03/01 00:23:08;;;;;;;6.78;5.38;;;17.00;84.90;;;;;;5073547;28;20025;-41
2024/03/01 00:25:33;;;;;;;7.80;5.45;;;17.00;84.90;;;;;;5073437;28;20024;-42
2024/03/01 00:27:59;;;;;;;7.97;6.07;;;17.00;84.90;;;;;;5073107;28;20510;-44
2024/03/01 00:30:25;;;;;;;7.88;5.35;;;17.00;84.90;;;;;;5073254;28;20117;-44
2024/03/01 00:32:50;;;;;;;9.50;5.53;;;17.00;84.90;;;;;;5073407;28;20033;-44
2024/03/01 00:35:16;;;;;;;8.00;5.97;;;17.00;84.90;;;;;;5073201;28;20048;-44
2024/03/01 00:37:42;;;;;;;7.32;5.43;;;17.00;84.90;;;;;;5073102;28;20112;-44
2024/03/01 00:40:08;;;;;;;8.73;6.10;;;17.00;84.90;;;;;;5073137;28;20063;-44
2024/03/01 00:42:33;;;;;;;7.82;5.38;;;16.90;84.80;;;;;;5073268;28;20016;-44
2024/03/01 00:44:59;;;;;;;6.80;5.13;;;17.00;84.90;;;;;;5073238;28;20032;-44
2024/03/01 00:47:25;;;;;;;7.88;5.78;;;16.90;84.80;;;;;;5072947;28;20032;-44
2024/03/01 00:49:50;;;;;;;6.68;5.15;;;17.00;84.90;;;;;;5072821;28;20059;-44
2024/03/01 00:52:16;;;;;;;8.27;5.82;;;16.90;85.00;;;;;;5072999;28;20502;-44
2024/03/01 00:54:42;;;;;;;7.53;5.30;;;16.90;85.00;;;;;;5072973;28;20020;-44
2024/03/01 00:57:07;;;;;;;7.15;5.20;;;16.90;85.00;;;;;;5072666;28;20033;-44
2024/03/01 00:59:33;;;;;;;7.03;5.20;;;16.90;85.10;;;;;;5072561;28;20097;-44
2024/03/01 01:01:59;;;;;;;6.65;5.10;;;16.90;85.10;;;;;;5072751;28;20012;-44
2024/03/01 01:04:24;;;;;;;7.38;5.15;;;16.90;85.10;;;;;;5072660;28;20033;-44
2024/03/01 01:06:51;;;;;;;7.13;5.40;;;16.90;85.10;;;;;;5072494;28;20029;-44
2024/03/01 01:09:16;;;;;;;7.13;5.47;;;16.90;85.10;;;;;;5072380;28;20085;-44
2024/03/01 01:11:42;;;;;;;8.35;5.70;;;16.90;85.00;;;;;;5072611;28;20028;-44
2024/03/01 01:14:07;;;;;;;7.45;5.20;;;16.90;85.10;;;;;;5072554;28;20100;-44
2024/03/01 01:16:33;;;;;;;8.60;4.65;;;16.90;85.00;;;;;;5072369;28;20095;-44
2024/03/01 01:18:59;;;;;;;7.95;5.07;;;16.90;85.10;;;;;;5070773;28;20118;-44
2024/03/01 01:21:24;;;;;;;8.18;5.68;;;16.90;85.00;;;;;;5072256;28;20028;-44
2024/03/01 01:23:50;;;;;;;8.15;6.15;;;16.90;85.00;;;;;;5072340;28;20020;-44
2024/03/01 01:26:16;;;;;;;9.57;6.10;;;16.90;85.00;;;;;;5072157;28;20382;-44
2024/03/01 01:28:42;;;;;;;6.53;5.65;;;16.90;85.10;;;;;;5071686;28;20122;-44
2024/03/01 01:31:08;;;;;;;7.57;5.20;;;16.90;85.00;;;;;;5072026;28;20055;-44
2024/03/01 01:33:34;;;;;;;9.23;5.60;;;16.90;85.00;;;;;;5072002;28;20111;-44
2024/03/01 01:35:59;;;;;;;8.35;5.95;;;16.90;85.00;;;;;;5071900;28;20028;-43
2024/03/01 01:38:25;;;;;;;7.55;5.53;;;16.90;85.00;;;;;;5071830;28;20029;-44
2024/03/01 01:40:51;;;;;;;8.20;5.70;;;16.90;85.00;;;;;;5071753;28;20095;-44
2024/03/01 01:43:17;;;;;;;5.82;4.93;;;16.90;85.00;;;;;;5071946;28;20058;-44
2024/03/01 01:45:42;;;;;;;7.90;5.10;;;16.90;85.10;;;;;;5071882;28;20494;-44
2024/03/01 01:48:09;;;;;;;7.68;5.40;;;16.90;85.10;;;;;;5071586;28;20090;-44
2024/03/01 01:50:35;;;;;;;7.78;5.40;;;16.90;85.20;;;;;;5071664;28;20027;-44
2024/03/01 01:53:02;;;;;;;6.32;4.85;;;16.90;85.20;;;;;;5071882;28;20024;-44
2024/03/01 01:55:28;;;;;;;6.60;5.07;;;16.90;85.20;;;;;;5071601;28;20111;-43
2024/03/01 01:57:55;;;;;;;9.18;5.65;;;16.90;85.20;;;;;;5071873;28;20120;-44
2024/03/01 02:00:20;;;;;;;7.45;5.43;;;16.90;85.20;;;;;;5071354;28;20027;-44
2024/03/01 02:02:50;;;;;;;8.02;5.85;;;16.90;85.20;;;;;;5070911;28;20025;-44
2024/03/01 02:05:17;;;;;;;7.22;5.05;;;16.90;85.20;;;;;;5071486;28;20029;-44
2024/03/01 02:07:43;;;;;;;6.65;4.85;;;16.90;85.20;;;;;;5071197;28;20028;-44
2024/03/01 02:10:16;;;;;;;6.88;5.22;;;16.90;85.20;;;;;;5071186;28;20440;-44
2024/03/01 02:12:54;;;;;;;7.00;5.30;;;16.90;85.20;;;;;;5071385;28;20408;-44
2024/03/01 02:15:20;;;;;;;7.30;5.28;;;16.90;85.20;;;;;;5071326;28;20028;-44
2024/03/01 02:17:46;;;;;;;8.15;5.10;;;16.90;85.20;;;;;;5071141;28;20017;-44
2024/03/01 02:20:12;;;;;;;7.38;4.95;;;16.80;85.10;;;;;;5071121;28;20028;-44
2024/03/01 02:22:38;;;;;;;10.02;4.82;;;16.90;85.20;;;;;;5071377;28;20024;-44
2024/03/01 02:25:05;;;;;;;6.63;5.00;;;16.90;85.20;;;;;;5071152;28;20043;-44
2024/03/01 02:27:31;;;;;;;7.47;4.97;;;16.80;85.20;;;;;;5070724;28;20479;-44
2024/03/01 02:29:56;;;;;;;8.13;4.78;;;16.80;85.20;;;;;;5071068;28;20127;-44
2024/03/01 02:32:22;;;;;;;7.18;4.97;;;16.80;85.20;;;;;;5071134;28;20031;-44
2024/03/01 02:34:48;;;;;;;7.22;5.00;;;16.80;85.20;;;;;;5071082;28;20025;-44
2024/03/01 02:37:13;;;;;;;7.65;4.57;;;16.80;85.20;;;;;;5070564;28;20450;-44
2024/03/01 02:39:39;;;;;;;6.38;4.82;;;16.80;85.20;;;;;;5070035;28;20020;-43
2024/03/01 02:42:05;;;;;;;7.00;5.20;;;16.80;85.30;;;;;;5070897;28;20028;-44
2024/03/01 02:44:30;;;;;;;7.22;4.95;;;16.80;85.30;;;;;;5070917;28;20028;-44
2024/03/01 02:46:56;;;;;;;7.38;4.88;;;16.80;85.30;;;;;;5070794;28;20031;-43
2024/03/01 02:49:22;;;;;;;6.68;5.07;;;16.80;85.40;;;;;;5070616;28;20090;-44
2024/03/01 02:51:47;;;;;;;7.18;5.10;;;16.80;85.40;;;;;;5071104;28;20313;-44
2024/03/01 02:54:13;;;;;;;6.40;4.75;;;16.80;85.40;;;;;;5071426;28;20375;-38
2024/03/01 02:56:39;;;;;;;5.88;4.50;;;16.80;85.50;;;;;;5070617;28;20040;-42
2024/03/01 02:59:04;;;;;;;7.97;5.03;;;16.70;85.40;;;;;;5070477;28;20032;-44
2024/03/01 03:01:31;;;;;;;6.72;4.80;;;16.70;85.40;;;;;;5070869;28;20071;-42
2024/03/01 03:03:56;;;;;;;7.32;5.13;;;16.70;85.50;;;;;;5070316;28;20028;-41
2024/03/01 03:06:22;;;;;;;7.15;5.13;;;16.70;85.50;;;;;;5070771;28;20020;-44
2024/03/01 03:08:48;;;;;;;6.65;5.03;;;16.70;85.50;;;;;;5070514;28;20086;-44
2024/03/01 03:11:14;;;;;;;6.55;4.63;;;16.70;85.50;;;;;;5070661;28;20028;-44
2024/03/01 03:13:39;;;;;;;6.18;4.57;;;16.70;85.50;;;;;;5070931;28;20033;-44
2024/03/01 03:16:05;;;;;;;6.40;4.55;;;16.80;85.60;;;;;;5070731;28;20494;-44
2024/03/01 03:18:31;;;;;;;7.35;4.82;;;16.70;85.50;;;;;;5070579;28;20437;-44
2024/03/01 03:20:56;;;;;;;7.00;4.93;;;16.70;85.50;;;;;;5070520;28;20020;-44
2024/03/01 03:23:22;;;;;;;6.70;4.72;;;16.70;85.50;;;;;;5070598;28;20021;-44
2024/03/01 03:25:48;;;;;;;6.57;5.05;;;16.70;85.50;;;;;;5070810;28;20037;-44
2024/03/01 03:28:15;;;;;;;6.28;4.53;;;16.70;85.50;;;;;;5070463;28;20029;-44
2024/03/01 03:30:40;;;;;;;7.22;4.82;;;16.70;85.50;;;;;;5070390;28;20020;-44
2024/03/01 03:33:06;;;;;;;5.60;4.53;;;16.70;85.60;;;;;;5069196;28;20034;-44
2024/03/01 03:35:32;;;;;;;7.13;5.00;;;16.70;85.60;;;;;;5070298;28;20035;-43
2024/03/01 03:37:57;;;;;;;5.38;3.95;;;16.70;85.70;;;;;;5070215;28;20017;-44
2024/03/01 03:40:23;;;;;;;5.72;4.32;;;16.70;85.70;;;;;;5070742;28;20494;-43
2024/03/01 03:42:49;;;;;;;7.68;5.05;;;16.70;85.70;;;;;;5070770;28;20017;-44
2024/03/01 03:45:15;;;;;;;6.93;4.75;;;16.70;85.80;;;;;;5070451;28;20478;-44
2024/03/01 03:47:40;;;;;;;6.10;4.30;;;16.70;85.70;;;;;;5070244;28;20020;-42
2024/03/01 03:50:07;;;;;;;6.00;4.53;;;16.70;85.70;;;;;;5070311;28;20433;-43
2024/03/01 03:52:34;;;;;;;7.05;3.97;;;16.70;85.70;;;;;;5073319;28;20260;-43
2024/03/01 03:55:00;;;;;;;6.22;4.72;;;16.70;85.70;;;;;;5074022;28;20024;-43
2024/03/01 03:57:26;;;;;;;6.88;4.55;;;16.70;85.70;;;;;;5073819;28;20029;-44
2024/03/01 03:59:52;;;;;;;5.40;4.28;;;16.70;85.70;;;;;;5073900;28;20110;-44
2024/03/01 04:02:17;;;;;;;5.93;4.55;;;16.70;85.70;;;;;;5073944;28;20078;-44
2024/03/01 04:04:43;;;;;;;7.28;5.03;;;16.70;85.70;;;;;;5073452;28;20081;-44
2024/03/01 04:07:08;;;;;;;8.77;4.80;;;16.70;85.70;;;;;;5073641;28;20025;-44
2024/03/01 04:09:36;;;;;;;7.03;5.10;;;16.70;85.80;;;;;;5073890;28;20071;-44
2024/03/01 04:12:05;;;;;;;6.00;4.70;;;16.70;85.80;;;;;;5073776;28;20107;-44
2024/03/01 04:14:32;;;;;;;7.15;4.80;;;16.70;85.80;;;;;;5073852;28;20027;-44
2024/03/01 04:16:57;;;;;;;7.72;5.00;;;16.70;85.90;;;;;;5073334;28;20431;-44
2024/03/01 04:19:24;;;;;;;6.03;4.55;;;16.70;85.90;;;;;;5072628;28;20056;-44
2024/03/01 04:21:52;;;;;;;7.10;5.10;;;16.70;85.90;;;;;;5073696;28;20021;-44
2024/03/01 04:24:18;;;;;;;6.45;4.63;;;16.70;86.00;;;;;;5073562;28;20023;-44
2024/03/01 04:26:44;;;;;;;7.13;5.03;;;16.70;86.00;;;;;;5073369;28;20525;-42
2024/03/01 04:29:10;;;;;;;7.82;4.72;;;16.70;86.00;;;;;;5073288;28;20036;-43
2024/03/01 04:31:35;;;;;;;7.05;4.80;;;16.70;86.00;;;;;;5073379;28;20032;-44
2024/03/01 04:34:06;;;;;;;5.90;4.68;;;16.60;86.00;;;;;;5073442;28;20492;-44
2024/03/01 04:36:32;;;;;;;6.13;4.85;;;16.70;86.00;;;;;;5073290;28;20036;-42
2024/03/01 04:38:58;;;;;;;7.50;4.95;;;16.70;86.10;;;;;;5072989;28;20147;-41
2024/03/01 04:41:24;;;;;;;6.07;4.80;;;16.60;86.00;;;;;;5073051;28;20494;-43
2024/03/01 04:43:49;;;;;;;6.35;4.50;;;16.70;86.10;;;;;;5073228;28;20024;-44
2024/03/01 04:46:15;;;;;;;7.30;4.78;;;16.70;86.10;;;;;;5072922;28;20043;-44
2024/03/01 04:48:41;;;;;;;7.53;4.90;;;16.60;86.10;;;;;;5072949;28;20036;-43
2024/03/01 04:51:12;;;;;;;6.50;4.63;;;16.60;86.00;;;;;;5072977;28;20380;-40
2024/03/01 04:53:38;;;;;;;6.80;4.82;;;16.60;86.00;;;;;;5072931;28;20036;-44
2024/03/01 04:56:04;;;;;;;5.13;4.43;;;16.60;86.10;;;;;;5072824;28;20032;-43
2024/03/01 04:58:30;;;;;;;7.20;4.68;;;16.60;86.10;;;;;;5072835;28;20032;-42
2024/03/01 05:00:55;;;;;;;7.90;4.85;;;16.60;86.10;;;;;;5072893;28;20132;-42
2024/03/01 05:03:21;;;;;;;6.25;4.47;;;16.60;86.10;;;;;;5072093;28;20505;-45
2024/03/01 05:05:46;;;;;;;7.03;4.55;;;16.60;86.20;;;;;;5072709;28;20103;-43
2024/03/01 05:08:12;;;;;;;6.82;4.82;;;16.60;86.20;;;;;;5072546;28;20541;-43
2024/03/01 05:10:38;;;;;;;6.55;4.60;;;16.60;86.30;;;;;;5072451;28;20070;-42
2024/03/01 05:13:03;;;;;;;6.43;4.50;;;16.60;86.30;;;;;;5072826;28;20521;-43
2024/03/01 05:15:29;;;;;;;6.75;4.32;;;16.60;86.30;;;;;;5072459;28;20051;-41
2024/03/01 05:17:54;;;;;;;7.32;4.85;;;16.50;86.20;;;;;;5072476;28;20040;-43
2024/03/01 05:20:20;;;;;;;6.20;4.45;;;16.50;86.30;;;;;;5072556;28;20032;-42
2024/03/01 05:22:46;;;;;;;6.35;4.88;;;16.50;86.30;;;;;;5072304;28;20488;-42
2024/03/01 05:25:14;;;;;;;5.60;4.20;;;16.50;86.30;;;;;;5072353;28;20016;-44
2024/03/01 05:27:50;;;;;;;6.93;4.68;;;16.50;86.30;;;;;;5072009;28;20195;-44
2024/03/01 05:30:26;;;;;;;7.30;4.53;;;16.40;86.40;;;;;;5072144;28;20013;-44
2024/03/01 05:32:52;;;;;;;5.95;4.50;;;16.30;86.40;;;;;;5072285;28;20017;-44
2024/03/01 05:35:19;;;;;;;7.05;4.68;;;16.30;87.40;;;;;;5072260;28;20028;-44
2024/03/01 05:37:46;;;;;;;5.38;4.10;;;16.20;86.80;;;;;;5070604;28;20025;-44
2024/03/01 05:40:14;;;;;;;6.47;4.93;;;16.10;87.00;;;;;;5071875;28;20123;-44
2024/03/01 05:42:41;;;;;;;5.93;4.57;;;16.00;87.20;;;;;;5071958;28;20035;-44
2024/03/01 05:45:07;;;;;;;5.90;4.60;;;15.90;87.30;;;;;;5071895;28;20021;-45
2024/03/01 05:47:44;;;;;;;7.20;5.18;;;15.80;87.60;;;;;;5071588;28;20024;-43
2024/03/01 05:50:14;;;;;;;7.25;5.05;;;15.70;87.80;;;;;;5070415;28;20043;-44
2024/03/01 05:52:42;;;;;;;6.57;4.68;;;15.70;88.20;;;;;;5072276;28;20490;-44
2024/03/01 05:55:14;;;;;;;7.97;4.97;;;15.60;88.30;;;;;;5071707;28;20047;-44
2024/03/01 05:57:41;;;;;;;7.40;5.07;;;15.50;88.50;;;;;;5071527;28;20025;-44
2024/03/01 06:00:26;;;;;;;7.75;5.60;;;15.40;88.80;;;;;;5071448;28;20099;-44
2024/03/01 06:02:52;;;;;;;7.03;4.80;;;15.30;89.00;;;;;;5071683;28;20478;-44
2024/03/01 06:05:18;;;;;;;6.55;5.00;;;15.20;89.20;;;;;;5071411;28;20433;-44
2024/03/01 06:07:45;;;;;;;7.35;5.03;;;15.10;89.50;;;;;;5071302;28;20130;-44
2024/03/01 06:10:13;;;;;;;8.32;5.30;;;15.10;89.80;;;;;;5071341;28;20031;-44
2024/03/01 06:12:38;;;;;;;14.38;9.68;;;15.00;90.00;;;;;;5071528;28;20386;-44
2024/03/01 06:15:05;;;;;;;17.27;12.55;;;14.90;90.10;;;;;;5071499;28;20494;-43
2024/03/01 06:17:34;;;;;;;18.88;12.93;;;14.80;90.20;;;;;;5071374;28;20082;-44
2024/03/01 06:20:00;;;;;;;20.42;12.93;;;14.80;90.30;;;;;;5071146;28;20440;-44
2024/03/01 06:22:27;;;;;;;17.45;12.23;;;14.70;90.40;;;;;;5071220;28;20024;-44
2024/03/01 06:24:53;;;;;;;24.05;13.65;;;14.60;90.50;;;;;;5071236;28;20025;-44
2024/03/01 06:27:19;;;;;;;22.80;13.70;;;14.60;90.60;;;;;;5070886;28;20032;-44
2024/03/01 06:29:44;;;;;;;22.73;13.25;;;14.50;90.70;;;;;;5070970;28;20382;-44
2024/03/01 06:32:11;;;;;;;20.27;13.07;;;14.50;90.70;;;;;;5069822;28;20104;-45
2024/03/01 06:34:37;;;;;;;18.60;12.35;;;14.50;90.80;;;;;;5071036;28;20029;-44
2024/03/01 06:37:03;;;;;;;19.67;12.18;;;14.40;90.90;;;;;;5070901;28;20032;-44
2024/03/01 06:39:29;;;;;;;19.27;12.05;;;14.40;91.00;;;;;;5070928;28;20277;-44
2024/03/01 06:41:55;;;;;;;20.38;11.52;;;14.40;91.10;;;;;;5071113;28;20429;-44
2024/03/01 06:44:25;;;;;;;17.42;11.82;;;14.40;91.20;;;;;;5071066;28;20024;-44
2024/03/01 06:46:53;;;;;;;18.05;11.27;;;14.40;91.30;;;;;;5070887;28;20376;-44
2024/03/01 06:49:19;;;;;;;17.50;11.68;;;14.40;91.30;;;;;;5070775;28;20035;-44
2024/03/01 06:51:45;;;;;;;17.25;11.43;;;14.40;91.30;;;;;;5070980;28;20033;-44
2024/03/01 06:54:11;;;;;;;17.23;10.55;;;14.40;91.30;;;;;;5071084;28;20024;-45
2024/03/01 06:56:41;;;;;;;18.73;11.38;;;14.40;91.30;;;;;;5070799;28;20031;-45
2024/03/01 06:59:07;;;;;;;16.08;10.98;;;14.50;91.30;;;;;;5069451;28;20086;-44
2024/03/01 07:01:32;;;;;;;16.80;11.40;;;14.50;91.30;;;;;;5070816;28;20056;-44
2024/03/01 07:03:58;;;;;;;18.63;11.00;;;14.50;91.20;;;;;;5070794;28;20050;-45
2024/03/01 07:06:24;;;;;;;17.60;10.85;;;14.60;91.20;;;;;;5071293;28;20518;-45
2024/03/01 07:08:49;;;;;;;16.95;10.23;;;14.60;91.20;;;;;;5070694;28;20103;-44
2024/03/01 07:11:15;;;;;;;15.70;10.50;;;14.70;91.20;;;;;;5070995;28;20548;-44
2024/03/01 07:13:41;;;;;;;17.35;10.65;;;14.70;91.10;;;;;;5071428;28;20060;-43
2024/03/01 07:16:06;;;;;;;14.68;9.55;;;14.70;91.00;;;;;;5070593;28;20070;-44
2024/03/01 07:18:32;;;;;;;16.05;10.63;;;14.80;91.00;;;;;;5069362;28;20059;-42
2024/03/01 07:20:57;;;;;;;17.48;10.15;;;14.80;91.00;;;;;;5070769;28;20021;-42
2024/03/01 07:23:23;;;;;;;15.25;10.18;;;14.90;90.90;;;;;;5069555;28;20040;-41
2024/03/01 07:25:48;;;;;;;17.13;10.18;;;14.90;90.90;;;;;;5070979;28;20064;-44
2024/03/01 07:28:14;;;;;;;15.40;10.15;;;14.90;90.80;;;;;;5074645;28;20040;-44
2024/03/01 07:30:40;;;;;;;12.63;9.27;;;15.00;90.80;;;;;;5074383;28;20027;-43
2024/03/01 07:33:06;;;;;;;14.77;9.40;;;15.00;90.80;;;;;;5074633;28;20025;-45
2024/03/01 07:35:32;;;;;;;13.77;9.82;;;15.10;90.70;;;;;;5074594;28;20032;-45
2024/03/01 07:37:57;;;;;;;14.38;9.18;;;15.10;90.70;;;;;;5074294;28;20017;-45
2024/03/01 07:40:23;;;;;;;13.93;8.90;;;15.10;90.60;;;;;;5074278;28;20052;-45
2024/03/01 07:42:50;;;;;;;16.63;10.00;;;15.20;90.60;;;;;;5074555;28;20021;-45
2024/03/01 07:45:16;;;;;;;12.85;9.38;;;15.20;90.60;;;;;;5074547;28;20488;-45
2024/03/01 07:47:44;;;;;;;12.80;8.63;;;15.20;90.50;;;;;;5074326;28;20482;-45
2024/03/01 07:50:09;;;;;;;12.98;9.40;;;15.30;90.50;;;;;;5074255;28;20478;-45
2024/03/01 07:52:35;;;;;;;12.73;8.75;;;15.30;90.40;;;;;;5074544;28;20044;-42
2024/03/01 07:55:01;;;;;;;12.65;8.13;;;15.30;90.40;;;;;;5074518;28;20555;-45
2024/03/01 07:57:26;;;;;;;12.43;8.30;;;15.40;90.40;;;;;;5073946;28;20027;-45
2024/03/01 07:59:52;;;;;;;10.75;8.15;;;15.40;90.30;;;;;;5073687;28;20036;-44
2024/03/01 08:02:18;;;;;;;12.40;8.40;;;15.40;90.30;;;;;;5073978;28;20029;-45
2024/03/01 08:04:44;;;;;;;12.27;8.73;;;15.50;90.30;;;;;;5074358;28;20052;-45
2024/03/01 08:07:13;;;;;;;14.25;8.27;;;15.50;90.20;;;;;;5073726;28;20024;-44
2024/03/01 08:09:40;;;;;;;11.80;8.07;;;15.50;90.20;;;;;;5073558;28;20032;-45
2024/03/01 08:12:11;;;;;;;12.93;8.73;;;15.50;90.20;;;;;;5073960;28;20021;-45
2024/03/01 08:14:37;;;;;;;12.73;8.18;;;15.60;90.20;;;;;;5073636;28;20044;-45
2024/03/01 08:17:04;;;;;;;10.90;7.72;;;15.60;90.10;;;;;;5073393;28;20032;-45
2024/03/01 08:19:40;;;;;;;11.05;7.43;;;15.60;90.10;;;;;;5073441;28;20095;-45
2024/03/01 08:22:12;;;;;;;12.52;7.97;;;15.60;90.00;;;;;;5073581;28;20053;-44
2024/03/01 08:24:46;;;;;;;13.98;7.80;;;15.70;90.00;;;;;;5073767;28;20020;-45
2024/03/01 08:27:21;;;;;;;10.10;7.50;;;15.70;90.00;;;;;;5073187;28;20423;-43
2024/03/01 08:29:47;;;;;;;;;;;15.70;90.00;;;;;;5073802;28;20067;-44
2024/03/01 08:32:32;;;;;;;13.57;7.75;;;15.80;90.00;;;;;;5073384;28;20006;-45
2024/03/01 08:34:59;;;;;;;14.73;9.23;;;15.80;90.00;;;;;;5065240;28;20064;-45
2024/03/01 08:37:27;;;;;;;19.00;10.80;;;15.80;89.80;;;;;;5058787;28;20032;-45
2024/03/01 08:39:54;;;;;;;17.38;10.40;;;15.80;89.70;;;;;;5063950;28;20024;-44
2024/03/01 08:42:21;;;;;;;16.90;10.63;;;15.80;89.60;;;;;;5062914;28;20047;-45
2024/03/01 08:44:59;;;;;;;15.80;9.63;;;15.80;89.50;;;;;;5065782;28;20077;-45
2024/03/01 08:47:41;;;;;;;16.98;10.05;;;15.90;89.60;;;;;;5061117;28;20033;-45
2024/03/01 08:50:13;;;;;;;15.15;9.23;;;15.90;89.50;;;;;;5053035;28;20447;-45
2024/03/01 08:52:39;;;;;;;13.77;8.30;;;16.00;89.50;;;;;;5053101;28;20328;-45
2024/03/01 08:55:17;;;;;;;13.60;9.27;;;16.00;89.40;;;;;;5052980;28;20025;-45
2024/03/01 08:57:44;;;;;;;12.07;8.70;;;16.00;89.30;;;;;;5053166;28;20055;-45
2024/03/01 09:00:39;;;;;;;11.48;8.55;;;16.00;89.20;;;;;;5052880;28;20104;-45
2024/03/01 09:03:05;;;;;;;12.65;8.48;;;16.10;89.20;;;;;;5052845;28;20390;-45
2024/03/01 09:05:34;;;;;;;11.88;8.50;;;16.10;89.20;;;;;;5052635;28;20079;-45
2024/03/01 09:08:00;;;;;;;11.02;7.68;;;16.10;89.10;;;;;;5052535;28;20517;-45
2024/03/01 09:10:28;;;;;;;9.98;7.18;;;16.10;89.00;;;;;;5052526;28;20068;-45
2024/03/01 09:12:55;;;;;;;10.90;7.28;;;16.20;89.00;;;;;;5052770;28;20020;-45
2024/03/01 09:15:25;;;;;;;11.10;7.10;;;16.20;88.90;;;;;;5052871;28;20059;-45
2024/03/01 09:17:52;;;;;;;10.32;7.28;;;16.20;88.90;;;;;;5052309;28;20021;-45
2024/03/01 09:20:36;;;;;;;11.20;7.47;;;16.20;88.80;;;;;;5050937;28;20108;-45
2024/03/01 09:23:05;;;;;;;11.10;7.22;;;16.30;88.80;;;;;;5052621;28;20021;-44
2024/03/01 09:25:43;;;;;;;10.60;7.38;;;16.30;88.70;;;;;;5052290;28;20491;-45
2024/03/01 09:28:11;;;;;;;11.00;7.55;;;16.30;88.70;;;;;;5052123;28;20112;-45
2024/03/01 09:30:37;;;;;;;12.63;7.00;;;16.30;88.60;;;;;;5052109;28;20025;-44
2024/03/01 09:33:07;;;;;;;10.10;7.10;;;16.40;88.60;;;;;;5052294;28;20036;-45
2024/03/01 09:35:33;;;;;;;10.77;6.35;;;16.40;88.50;;;;;;5052015;28;20036;-45
2024/03/01 09:38:01;;;;;;;10.18;6.65;;;16.40;88.40;;;;;;5051817;28;20029;-45
2024/03/01 09:40:38;;;;;;;10.52;6.90;;;16.40;88.40;;;;;;5051917;28;20025;-45
2024/03/01 09:43:42;;;;;;;10.40;6.75;;;16.40;88.40;;;;;;5052073;28;20455;-45
2024/03/01 09:46:29;;;;;;;10.23;6.78;;;16.40;88.30;;;;;;5050496;28;20036;-45
2024/03/01 09:49:40;;;;;;;9.57;6.68;;;16.40;88.30;;;;;;5051479;28;20035;-44
2024/03/01 09:52:29;;;;;;;7.65;6.13;;;16.50;88.30;;;;;;5052024;28;20395;-45
2024/03/01 09:55:40;;;;;;;9.82;6.38;;;16.50;88.30;;;;;;5051910;28;20054;-45
2024/03/01 09:58:37;;;;;;;9.00;6.13;;;16.50;88.20;;;;;;5050415;28;20059;-45
2024/03/01 10:01:02;;;;;;;8.65;6.05;;;16.50;88.20;;;;;;5051509;28;20380;-45
2024/03/01 10:03:51;;;;;;;7.65;5.45;;;16.50;88.20;;;;;;5051607;28;20024;-45
2024/03/01 10:06:42;;;;;;;7.72;5.18;;;16.50;88.20;;;;;;5051518;28;20033;-44
2024/03/01 10:09:24;;;;;;;7.88;5.75;;;16.50;88.20;;;;;;5051174;28;20396;-45
2024/03/01 10:11:56;;;;;;;6.88;5.43;;;16.50;88.10;;;;;;5051518;28;20124;-45
2024/03/01 10:14:31;;;;;;;6.75;5.13;;;16.60;88.10;;;;;;5051564;28;20033;-45
2024/03/01 10:17:17;;;;;;;7.78;5.43;;;16.50;88.10;;;;;;5051202;28;20071;-44
2024/03/01 10:19:52;;;;;;;8.27;5.47;;;16.60;88.10;;;;;;5051074;28;20032;-44
2024/03/01 10:22:27;;;;;;;8.43;5.32;;;16.60;88.10;;;;;;5051573;28;20032;-45
2024/03/01 10:25:40;;;;;;;7.55;5.15;;;16.60;88.00;;;;;;5051372;28;20044;-45
2024/03/01 10:28:37;;;;;;;6.43;5.00;;;16.60;88.00;;;;;;5050587;28;20131;-45
2024/03/01 10:31:14;;;;;;;7.45;5.18;;;16.70;88.00;;;;;;5051167;28;20483;-45
2024/03/01 10:33:57;;;;;;;7.20;4.80;;;16.70;88.00;;;;;;5051477;28;20044;-45
2024/03/01 10:36:42;;;;;;;6.85;4.97;;;16.70;88.00;;;;;;5050926;28;20029;-42
2024/03/01 10:39:20;;;;;;;7.85;5.20;;;16.70;87.90;;;;;;5051310;28;20569;-45
2024/03/01 10:42:13;;;;;;;7.97;5.45;;;16.70;87.90;;;;;;5051110;28;20037;-45
2024/03/01 10:45:06;;;;;;;6.72;4.90;;;16.70;87.90;;;;;;5050892;28;20032;-45
2024/03/01 10:47:33;;;;;;;6.82;4.78;;;16.70;87.80;;;;;;5051003;28;20025;-42
2024/03/01 10:50:20;;;;;;;7.03;4.70;;;16.70;87.80;;;;;;5050726;28;20448;-45
2024/03/01 10:53:09;;;;;;;6.20;4.32;;;16.80;87.90;;;;;;5050883;28;20029;-44
2024/03/01 10:55:39;;;;;;;6.13;4.10;;;16.80;87.90;;;;;;5050906;28;20037;-43
2024/03/01 10:58:14;;;;;;;5.55;4.03;;;16.80;87.80;;;;;;5050635;28;20018;-44
2024/03/01 11:00:53;;;;;;;6.07;4.35;;;16.90;87.90;;;;;;5050028;28;20521;-45
2024/03/01 11:03:39;;;;;;;5.90;4.32;;;16.90;88.60;;;;;;5050781;28;20018;-45
2024/03/01 11:06:19;;;;;;;7.22;4.20;;;16.90;87.70;;;;;;5050046;28;20071;-45
2024/03/01 11:09:01;;;;;;;5.22;4.28;;;16.90;87.80;;;;;;5050678;28;20021;-45
2024/03/01 11:11:26;;;;;;;5.25;4.18;;;17.00;87.80;;;;;;5050746;28;20394;-45
2024/03/01 11:13:56;;;;;;;5.25;4.00;;;17.00;87.70;;;;;;5050694;28;20075;-45
2024/03/01 11:16:27;;;;;;;5.68;3.95;;;17.00;87.70;;;;;;5050669;28;20112;-45
2024/03/01 11:18:57;;;;;;;5.13;3.40;;;17.00;87.60;;;;;;5050474;28;20483;-45
2024/03/01 11:21:26;;;;;;;5.78;4.38;;;17.10;87.60;;;;;;5050549;28;20025;-45
2024/03/01 11:23:59;;;;;;;5.45;3.28;;;17.20;87.60;;;;;;5050756;28;20605;-45
2024/03/01 11:26:34;;;;;;;4.63;3.35;;;17.20;87.50;;;;;;5050543;28;20033;-45
2024/03/01 11:29:07;;;;;;;4.93;3.55;;;17.20;87.40;;;;;;5050426;28;20083;-45
2024/03/01 11:31:38;;;;;;;5.80;3.78;;;17.30;87.30;;;;;;5049463;28;20083;-45
2024/03/01 11:34:23;;;;;;;5.53;3.85;;;17.30;87.30;;;;;;5050739;28;20021;-45
2024/03/01 11:37:01;;;;;;;4.57;3.25;;;17.40;87.20;;;;;;5050336;28;20056;-45
2024/03/01 11:39:51;;;;;;;4.82;3.50;;;17.40;87.10;;;;;;5050368;28;20021;-45
2024/03/01 11:42:39;;;;;;;4.80;3.55;;;17.40;86.90;;;;;;5050515;28;20048;-45
2024/03/01 11:45:10;;;;;;;4.65;3.47;;;17.50;86.80;;;;;;5050453;28;20024;-45
2024/03/01 11:48:11;;;;;;;4.63;3.40;;;17.50;86.80;;;;;;5050158;28;20091;-45
2024/03/01 11:51:03;;;;;;;5.35;3.17;;;17.50;86.60;;;;;;5050256;28;20025;-45
2024/03/01 11:53:47;;;;;;;4.38;3.28;;;17.50;86.70;;;;;;5049474;28;20402;-45
2024/03/01 11:56:43;;;;;;;4.38;3.35;;;17.60;86.60;;;;;;5048949;28;20487;-45
2024/03/01 11:59:40;;;;;;;4.32;3.35;;;17.60;86.50;;;;;;5050271;28;20025;-45
2024/03/01 12:02:37;;;;;;;5.05;3.22;;;17.60;86.40;;;;;;5048002;28;20127;-45
2024/03/01 12:05:24;;;;;;;4.13;2.95;;;17.60;86.40;;;;;;5050427;28;20282;-45
2024/03/01 12:08:11;;;;;;;4.68;3.20;;;17.60;86.30;;;;;;5049976;28;20499;-45
2024/03/01 12:10:46;;;;;;;4.50;3.30;;;17.60;86.40;;;;;;5050190;28;20082;-45
2024/03/01 12:13:16;;;;;;;4.05;3.10;;;17.70;86.30;;;;;;5052453;28;20024;-44
2024/03/01 12:16:04;;;;;;;4.35;2.58;;;17.70;86.20;;;;;;5053583;28;20090;-45
2024/03/01 12:18:46;;;;;;;4.88;3.10;;;17.70;86.10;;;;;;5053607;28;20078;-45
2024/03/01 12:21:46;;;;;;;3.95;2.92;;;17.70;86.00;;;;;;5053465;28;20049;-45
2024/03/01 12:24:17;;;;;;;3.30;2.50;;;17.70;85.90;;;;;;5053603;28;20017;-45
2024/03/01 12:26:58;;;;;;;4.30;2.90;;;17.70;85.90;;;;;;5053041;28;20021;-45
2024/03/01 12:29:33;;;;;;;5.25;2.78;;;17.80;85.90;;;;;;5053392;28;20268;-44
2024/03/01 12:32:18;;;;;;;4.55;3.00;;;17.80;85.90;;;;;;5053638;28;20024;-45
2024/03/01 12:35:09;;;;;;;4.35;2.63;;;17.80;85.80;;;;;;5053384;28;20025;-44
2024/03/01 12:37:51;;;;;;;4.28;2.70;;;17.70;85.70;;;;;;5052897;28;20487;-45
2024/03/01 12:40:18;;;;;;;4.07;2.80;;;17.80;85.80;;;;;;5053185;28;20040;-45
2024/03/01 12:42:59;;;;;;;5.47;2.78;;;17.80;85.80;;;;;;5051889;28;20108;-45
2024/03/01 12:45:38;;;;;;;8.95;3.30;;;17.80;85.70;;;;;;5053006;28;20025;-44
2024/03/01 12:48:12;;;;;;;8.93;3.78;;;17.80;85.80;;;;;;5053166;28;20387;-45
2024/03/01 12:51:03;;;;;;;12.80;4.50;;;17.80;85.90;;;;;;5052942;28;20069;-45
2024/03/01 12:53:41;;;;;;;15.15;4.15;;;17.80;86.00;;;;;;5053241;28;20027;-45
2024/03/01 12:56:28;;;;;;;11.00;5.03;;;17.80;86.10;;;;;;5053280;28;20405;-45
2024/03/01 12:59:09;;;;;;;14.20;4.35;;;17.80;86.20;;;;;;5052847;28;20064;-45
2024/03/01 13:01:53;;;;;;;11.63;4.22;;;17.80;86.20;;;;;;5053007;28;20025;-45